sensor_id;sensor_type;location;lat;lon;timestamp;pressure;altitude;pressure_sealevel;temperature;humidity
5954;BME280;3002;42.642;24.812;2022-12-26T00:00:23;97315.47;;;10.09;52.45
5954;BME280;3002;42.642;24.812;2022-12-26T00:02:49;97333.81;;;9.75;56.97
5954;BME280;3002;42.642;24.812;2022-12-26T00:05:14;97342.66;;;9.33;62.54
5954;BME280;3002;42.642;24.812;2022-12-26T00:07:40;97320.75;;;9.04;64.13
5954;BME280;3002;42.642;24.812;2022-12-26T00:10:06;97339.97;;;8.64;65.77
5954;BME280;3002;42.642;24.812;2022-12-26T00:12:31;97330.56;;;8.93;65.28
5954;BME280;3002;42.642;24.812;2022-12-26T00:14:57;97367.44;;;9.18;65.64
5954;BME280;3002;42.642;24.812;2022-12-26T00:17:22;97383.16;;;9.09;64.42
5954;BME280;3002;42.642;24.812;2022-12-26T00:19:48;97365.16;;;8.73;64.73
5954;BME280;3002;42.642;24.812;2022-12-26T00:22:13;97376.53;;;8.58;65.26
5954;BME280;3002;42.642;24.812;2022-12-26T00:24:40;97357.50;;;8.54;65.35
5954;BME280;3002;42.642;24.812;2022-12-26T00:27:05;97386.84;;;8.49;67.18
5954;BME280;3002;42.642;24.812;2022-12-26T00:29:31;97392.38;;;8.65;67.03
5954;BME280;3002;42.642;24.812;2022-12-26T00:31:56;97380.19;;;8.30;69.04
5954;BME280;3002;42.642;24.812;2022-12-26T00:34:21;97365.03;;;7.92;70.14
5954;BME280;3002;42.642;24.812;2022-12-26T00:36:47;97372.50;;;7.73;72.09
5954;BME280;3002;42.642;24.812;2022-12-26T00:39:12;97362.84;;;7.89;70.23
5954;BME280;3002;42.642;24.812;2022-12-26T00:41:38;97365.94;;;7.42;70.40
5954;BME280;3002;42.642;24.812;2022-12-26T00:44:03;97381.28;;;7.68;69.50
5954;BME280;3002;42.642;24.812;2022-12-26T00:46:29;97374.09;;;7.91;68.38
5954;BME280;3002;42.642;24.812;2022-12-26T00:48:54;97361.25;;;7.88;67.56
5954;BME280;3002;42.642;24.812;2022-12-26T00:51:20;97370.31;;;7.87;71.05
5954;BME280;3002;42.642;24.812;2022-12-26T00:53:46;97360.41;;;7.65;67.09
5954;BME280;3002;42.642;24.812;2022-12-26T00:56:11;97345.63;;;7.79;66.00
5954;BME280;3002;42.642;24.812;2022-12-26T00:58:37;97359.03;;;7.63;67.51
5954;BME280;3002;42.642;24.812;2022-12-26T01:01:14;97366.28;;;7.67;68.12
5954;BME280;3002;42.642;24.812;2022-12-26T01:03:40;97340.84;;;7.60;67.07
5954;BME280;3002;42.642;24.812;2022-12-26T01:06:06;97365.66;;;7.60;69.70
5954;BME280;3002;42.642;24.812;2022-12-26T01:08:31;97365.09;;;7.58;69.57
5954;BME280;3002;42.642;24.812;2022-12-26T01:10:58;97359.50;;;7.76;68.67
5954;BME280;3002;42.642;24.812;2022-12-26T01:13:26;97390.03;;;7.64;69.33
5954;BME280;3002;42.642;24.812;2022-12-26T01:15:52;97393.66;;;7.74;69.80
5954;BME280;3002;42.642;24.812;2022-12-26T01:18:18;97374.38;;;7.72;68.55
5954;BME280;3002;42.642;24.812;2022-12-26T01:20:44;97381.38;;;7.95;67.50
5954;BME280;3002;42.642;24.812;2022-12-26T01:23:09;97357.44;;;7.62;65.80
5954;BME280;3002;42.642;24.812;2022-12-26T01:25:35;97355.50;;;7.57;64.23
5954;BME280;3002;42.642;24.812;2022-12-26T01:28:00;97333.72;;;7.27;65.31
5954;BME280;3002;42.642;24.812;2022-12-26T01:30:26;97377.25;;;7.88;64.83
5954;BME280;3002;42.642;24.812;2022-12-26T01:32:51;97347.50;;;7.79;64.77
5954;BME280;3002;42.642;24.812;2022-12-26T01:35:17;97369.31;;;7.93;65.07
5954;BME280;3002;42.642;24.812;2022-12-26T01:37:42;97360.69;;;7.47;67.67
5954;BME280;3002;42.642;24.812;2022-12-26T01:40:10;97369.72;;;7.63;68.07
5954;BME280;3002;42.642;24.812;2022-12-26T01:42:38;97379.06;;;7.82;67.43
5954;BME280;3002;42.642;24.812;2022-12-26T01:48:01;97389.28;;;7.68;69.75
5954;BME280;3002;42.642;24.812;2022-12-26T01:50:44;97375.94;;;7.68;68.84
5954;BME280;3002;42.642;24.812;2022-12-26T01:53:21;97398.72;;;7.76;69.85
5954;BME280;3002;42.642;24.812;2022-12-26T01:55:55;97388.97;;;7.65;68.88
5954;BME280;3002;42.642;24.812;2022-12-26T01:58:30;97399.31;;;8.00;67.38
5954;BME280;3002;42.642;24.812;2022-12-26T02:00:58;97402.69;;;7.73;67.89
5954;BME280;3002;42.642;24.812;2022-12-26T02:03:25;97408.84;;;7.74;67.80
5954;BME280;3002;42.642;24.812;2022-12-26T02:06:11;97409.19;;;7.61;68.87
5954;BME280;3002;42.642;24.812;2022-12-26T02:08:38;97379.28;;;7.25;68.59
5954;BME280;3002;42.642;24.812;2022-12-26T02:11:19;97412.34;;;7.58;67.68
5954;BME280;3002;42.642;24.812;2022-12-26T02:13:46;97390.78;;;7.09;67.02
5954;BME280;3002;42.642;24.812;2022-12-26T02:16:14;97391.56;;;6.92;67.21
5954;BME280;3002;42.642;24.812;2022-12-26T02:18:40;97403.28;;;7.25;67.40
5954;BME280;3002;42.642;24.812;2022-12-26T02:21:39;97417.53;;;7.47;67.18
5954;BME280;3002;42.642;24.812;2022-12-26T02:27:23;97416.97;;;7.62;68.25
5954;BME280;3002;42.642;24.812;2022-12-26T02:33:04;97407.75;;;7.53;68.47
5954;BME280;3002;42.642;24.812;2022-12-26T02:38:04;97410.03;;;7.44;69.61
5954;BME280;3002;42.642;24.812;2022-12-26T02:43:36;97398.47;;;7.22;69.77
5954;BME280;3002;42.642;24.812;2022-12-26T02:49:02;97396.09;;;7.25;70.43
5954;BME280;3002;42.642;24.812;2022-12-26T02:54:51;97396.25;;;7.19;69.80
5954;BME280;3002;42.642;24.812;2022-12-26T03:01:02;97393.00;;;6.83;71.43
5954;BME280;3002;42.642;24.812;2022-12-26T03:03:50;97400.16;;;6.66;72.43
5954;BME280;3002;42.642;24.812;2022-12-26T03:06:38;97373.78;;;6.98;70.23
5954;BME280;3002;42.642;24.812;2022-12-26T03:09:31;97398.38;;;7.17;69.17
5954;BME280;3002;42.642;24.812;2022-12-26T03:15:02;97398.47;;;6.77;73.11
5954;BME280;3002;42.642;24.812;2022-12-26T03:17:51;97395.72;;;6.71;73.18
5954;BME280;3002;42.642;24.812;2022-12-26T03:20:19;97351.44;;;6.70;71.39
5954;BME280;3002;42.642;24.812;2022-12-26T03:22:51;97392.44;;;6.81;72.45
5954;BME280;3002;42.642;24.812;2022-12-26T03:25:24;97403.78;;;7.05;71.54
5954;BME280;3002;42.642;24.812;2022-12-26T03:28:10;97406.78;;;7.09;71.69
5954;BME280;3002;42.642;24.812;2022-12-26T03:30:36;97408.63;;;6.91;71.94
5954;BME280;3002;42.642;24.812;2022-12-26T03:33:15;97404.41;;;7.12;71.80
5954;BME280;3002;42.642;24.812;2022-12-26T03:35:59;97375.34;;;7.11;71.53
5954;BME280;3002;42.642;24.812;2022-12-26T03:38:34;97398.22;;;7.40;69.98
5954;BME280;3002;42.642;24.812;2022-12-26T03:41:26;97420.19;;;7.47;70.45
5954;BME280;3002;42.642;24.812;2022-12-26T03:44:27;97420.03;;;7.20;71.80
5954;BME280;3002;42.642;24.812;2022-12-26T03:47:18;97422.28;;;7.12;72.95
5954;BME280;3002;42.642;24.812;2022-12-26T03:50:36;97414.03;;;7.13;73.45
5954;BME280;3002;42.642;24.812;2022-12-26T03:53:35;97393.72;;;6.95;75.51
5954;BME280;3002;42.642;24.812;2022-12-26T03:56:31;97412.91;;;7.09;75.75
5954;BME280;3002;42.642;24.812;2022-12-26T03:59:25;97407.25;;;7.06;77.03
5954;BME280;3002;42.642;24.812;2022-12-26T04:02:13;97404.25;;;6.85;78.28
5954;BME280;3002;42.642;24.812;2022-12-26T04:05:00;97398.97;;;6.74;80.58
5954;BME280;3002;42.642;24.812;2022-12-26T04:07:55;97409.81;;;6.84;81.14
5954;BME280;3002;42.642;24.812;2022-12-26T04:10:47;97401.00;;;7.00;79.34
5954;BME280;3002;42.642;24.812;2022-12-26T04:17:08;97400.13;;;7.11;79.00
5954;BME280;3002;42.642;24.812;2022-12-26T04:22:34;97410.34;;;6.69;82.77
5954;BME280;3002;42.642;24.812;2022-12-26T04:25:27;97409.47;;;6.80;80.72
5954;BME280;3002;42.642;24.812;2022-12-26T04:28:12;97415.00;;;6.62;79.72
5954;BME280;3002;42.642;24.812;2022-12-26T04:31:07;97418.69;;;6.89;77.36
5954;BME280;3002;42.642;24.812;2022-12-26T04:33:57;97423.38;;;6.82;78.82
5954;BME280;3002;42.642;24.812;2022-12-26T04:36:46;97416.94;;;6.38;81.52
5954;BME280;3002;42.642;24.812;2022-12-26T04:39:33;97413.50;;;6.66;80.58
5954;BME280;3002;42.642;24.812;2022-12-26T04:42:20;97427.53;;;6.90;78.66
5954;BME280;3002;42.642;24.812;2022-12-26T04:45:06;97438.34;;;7.00;78.79
5954;BME280;3002;42.642;24.812;2022-12-26T04:47:32;97413.53;;;7.00;77.43
5954;BME280;3002;42.642;24.812;2022-12-26T04:49:58;97425.34;;;7.04;76.90
5954;BME280;3002;42.642;24.812;2022-12-26T04:52:41;97438.22;;;7.23;76.27
5954;BME280;3002;42.642;24.812;2022-12-26T04:55:30;97438.44;;;7.05;77.98
5954;BME280;3002;42.642;24.812;2022-12-26T04:57:57;97428.75;;;6.99;77.67
5954;BME280;3002;42.642;24.812;2022-12-26T05:00:24;97423.41;;;6.99;77.00
5954;BME280;3002;42.642;24.812;2022-12-26T05:02:53;97438.53;;;7.10;77.75
5954;BME280;3002;42.642;24.812;2022-12-26T05:05:42;97443.13;;;6.98;79.23
5954;BME280;3002;42.642;24.812;2022-12-26T05:11:17;97444.94;;;6.81;79.80
5954;BME280;3002;42.642;24.812;2022-12-26T05:13:42;97453.38;;;6.61;80.48
5954;BME280;3002;42.642;24.812;2022-12-26T05:16:08;97449.56;;;6.57;80.52
5954;BME280;3002;42.642;24.812;2022-12-26T05:18:52;97434.56;;;6.67;78.87
5954;BME280;3002;42.642;24.812;2022-12-26T05:21:36;97441.16;;;6.93;78.23
5954;BME280;3002;42.642;24.812;2022-12-26T05:24:21;97438.31;;;6.55;81.04
5954;BME280;3002;42.642;24.812;2022-12-26T05:27:11;97448.94;;;6.66;81.94
5954;BME280;3002;42.642;24.812;2022-12-26T05:29:58;97455.41;;;6.70;79.80
5954;BME280;3002;42.642;24.812;2022-12-26T05:32:24;97453.59;;;6.88;78.25
5954;BME280;3002;42.642;24.812;2022-12-26T05:35:08;97442.41;;;6.46;81.73
5954;BME280;3002;42.642;24.812;2022-12-26T05:37:33;97428.84;;;6.47;81.43
5954;BME280;3002;42.642;24.812;2022-12-26T05:39:59;97444.50;;;6.43;78.87
5954;BME280;3002;42.642;24.812;2022-12-26T05:42:25;97436.13;;;6.52;78.59
5954;BME280;3002;42.642;24.812;2022-12-26T05:44:50;97443.22;;;6.75;77.88
5954;BME280;3002;42.642;24.812;2022-12-26T05:47:16;97415.28;;;6.49;78.11
5954;BME280;3002;42.642;24.812;2022-12-26T05:49:41;97433.16;;;6.65;77.89
5954;BME280;3002;42.642;24.812;2022-12-26T05:52:07;97447.41;;;6.70;78.47
5954;BME280;3002;42.642;24.812;2022-12-26T05:54:32;97443.56;;;6.78;77.88
5954;BME280;3002;42.642;24.812;2022-12-26T05:56:58;97448.16;;;6.83;77.79
5954;BME280;3002;42.642;24.812;2022-12-26T05:59:24;97443.38;;;6.68;78.92
5954;BME280;3002;42.642;24.812;2022-12-26T06:01:49;97457.50;;;6.97;75.96
5954;BME280;3002;42.642;24.812;2022-12-26T06:04:15;97449.41;;;6.63;78.25
5954;BME280;3002;42.642;24.812;2022-12-26T06:06:40;97465.25;;;6.70;80.18
5954;BME280;3002;42.642;24.812;2022-12-26T06:09:06;97438.38;;;6.43;82.17
5954;BME280;3002;42.642;24.812;2022-12-26T06:11:32;97462.78;;;6.80;80.46
5954;BME280;3002;42.642;24.812;2022-12-26T06:13:57;97434.06;;;6.54;81.75
5954;BME280;3002;42.642;24.812;2022-12-26T06:16:25;97464.00;;;6.89;80.14
5954;BME280;3002;42.642;24.812;2022-12-26T06:18:53;97477.97;;;7.08;78.86
5954;BME280;3002;42.642;24.812;2022-12-26T06:21:19;97474.28;;;7.26;77.43
5954;BME280;3002;42.642;24.812;2022-12-26T06:23:44;97481.97;;;6.94;79.38
5954;BME280;3002;42.642;24.812;2022-12-26T06:26:10;97466.25;;;7.09;77.71
5954;BME280;3002;42.642;24.812;2022-12-26T06:28:37;97482.09;;;8.77;69.68
5954;BME280;3002;42.642;24.812;2022-12-26T06:31:06;97483.34;;;10.78;60.39
5954;BME280;3002;42.642;24.812;2022-12-26T06:33:32;97473.69;;;13.15;52.20
5954;BME280;3002;42.642;24.812;2022-12-26T06:36:18;97492.00;;;15.16;48.21
5954;BME280;3002;42.642;24.812;2022-12-26T06:38:44;97491.44;;;16.08;45.42
5954;BME280;3002;42.642;24.812;2022-12-26T06:41:12;97484.66;;;16.66;43.98
5954;BME280;3002;42.642;24.812;2022-12-26T06:43:38;97456.72;;;16.70;43.37
5954;BME280;3002;42.642;24.812;2022-12-26T06:46:05;97475.09;;;17.59;41.80
5954;BME280;3002;42.642;24.812;2022-12-26T06:48:31;97469.94;;;17.35;41.70
5954;BME280;3002;42.642;24.812;2022-12-26T06:50:57;97463.19;;;16.14;43.12
5954;BME280;3002;42.642;24.812;2022-12-26T06:53:23;97460.28;;;17.07;41.61
5954;BME280;3002;42.642;24.812;2022-12-26T06:55:50;97482.94;;;18.06;40.64
5954;BME280;3002;42.642;24.812;2022-12-26T06:58:16;97489.38;;;17.87;40.20
5954;BME280;3002;42.642;24.812;2022-12-26T07:00:42;97489.88;;;16.35;42.34
5954;BME280;3002;42.642;24.812;2022-12-26T07:03:07;97475.94;;;16.41;42.27
5954;BME280;3002;42.642;24.812;2022-12-26T07:05:37;97490.31;;;14.58;46.83
5954;BME280;3002;42.642;24.812;2022-12-26T07:08:02;97494.13;;;13.65;49.61
5954;BME280;3002;42.642;24.812;2022-12-26T07:10:28;97483.75;;;15.26;45.70
5954;BME280;3002;42.642;24.812;2022-12-26T07:12:54;97482.84;;;16.61;43.36
5954;BME280;3002;42.642;24.812;2022-12-26T07:15:19;97477.91;;;17.54;41.96
5954;BME280;3002;42.642;24.812;2022-12-26T07:17:45;97477.94;;;18.61;39.53
5954;BME280;3002;42.642;24.812;2022-12-26T07:20:10;97457.66;;;19.59;38.44
5954;BME280;3002;42.642;24.812;2022-12-26T07:22:36;97476.34;;;18.60;38.57
5954;BME280;3002;42.642;24.812;2022-12-26T07:25:02;97502.66;;;18.20;39.30
5954;BME280;3002;42.642;24.812;2022-12-26T07:27:27;97490.34;;;18.85;38.52
5954;BME280;3002;42.642;24.812;2022-12-26T07:29:53;97500.16;;;18.63;38.95
5954;BME280;3002;42.642;24.812;2022-12-26T07:32:20;97496.47;;;18.28;39.43
5954;BME280;3002;42.642;24.812;2022-12-26T07:34:45;97505.84;;;19.85;38.16
5954;BME280;3002;42.642;24.812;2022-12-26T07:37:11;97512.69;;;20.08;37.35
5954;BME280;3002;42.642;24.812;2022-12-26T07:39:36;97490.13;;;19.99;37.96
5954;BME280;3002;42.642;24.812;2022-12-26T07:42:02;97510.94;;;20.68;35.49
5954;BME280;3002;42.642;24.812;2022-12-26T07:44:30;97511.41;;;20.78;35.37
5954;BME280;3002;42.642;24.812;2022-12-26T07:46:56;97520.50;;;20.36;35.75
5954;BME280;3002;42.642;24.812;2022-12-26T07:49:22;97524.53;;;19.51;37.33
5954;BME280;3002;42.642;24.812;2022-12-26T07:51:48;97519.09;;;19.51;37.06
5954;BME280;3002;42.642;24.812;2022-12-26T07:54:14;97526.13;;;19.52;36.80
5954;BME280;3002;42.642;24.812;2022-12-26T07:56:40;97525.81;;;17.73;39.45
5954;BME280;3002;42.642;24.812;2022-12-26T07:59:08;97527.84;;;18.12;39.94
5954;BME280;3002;42.642;24.812;2022-12-26T08:01:36;97513.97;;;18.76;39.76
5954;BME280;3002;42.642;24.812;2022-12-26T08:04:01;97516.56;;;19.81;36.99
5954;BME280;3002;42.642;24.812;2022-12-26T08:06:27;97519.63;;;20.70;36.28
5954;BME280;3002;42.642;24.812;2022-12-26T08:08:52;97513.38;;;22.12;33.44
5954;BME280;3002;42.642;24.812;2022-12-26T08:11:20;97506.41;;;20.34;35.36
5954;BME280;3002;42.642;24.812;2022-12-26T08:13:47;97502.78;;;21.35;34.35
5954;BME280;3002;42.642;24.812;2022-12-26T08:16:13;97518.41;;;20.88;35.39
5954;BME280;3002;42.642;24.812;2022-12-26T08:18:39;97509.00;;;21.99;33.91
5954;BME280;3002;42.642;24.812;2022-12-26T08:21:05;97519.72;;;22.37;33.65
5954;BME280;3002;42.642;24.812;2022-12-26T08:23:31;97514.81;;;22.88;33.01
5954;BME280;3002;42.642;24.812;2022-12-26T08:25:57;97515.19;;;22.99;32.76
5954;BME280;3002;42.642;24.812;2022-12-26T08:28:22;97527.91;;;23.43;32.22
5954;BME280;3002;42.642;24.812;2022-12-26T08:30:48;97511.72;;;23.91;32.15
5954;BME280;3002;42.642;24.812;2022-12-26T08:33:15;97512.59;;;22.57;33.13
5954;BME280;3002;42.642;24.812;2022-12-26T08:35:41;97514.38;;;23.22;32.05
5954;BME280;3002;42.642;24.812;2022-12-26T08:38:07;97517.91;;;23.23;32.26
5954;BME280;3002;42.642;24.812;2022-12-26T08:40:32;97510.38;;;22.95;32.27
5954;BME280;3002;42.642;24.812;2022-12-26T08:42:58;97502.78;;;21.35;34.27
5954;BME280;3002;42.642;24.812;2022-12-26T08:45:24;97493.94;;;21.92;33.86
5954;BME280;3002;42.642;24.812;2022-12-26T08:47:50;97493.22;;;22.37;32.99
5954;BME280;3002;42.642;24.812;2022-12-26T08:50:16;97481.47;;;19.36;36.33
5954;BME280;3002;42.642;24.812;2022-12-26T08:52:42;97482.44;;;21.87;34.06
5954;BME280;3002;42.642;24.812;2022-12-26T08:55:09;97482.91;;;23.57;32.01
5954;BME280;3002;42.642;24.812;2022-12-26T08:57:34;97476.75;;;23.60;31.12
5954;BME280;3002;42.642;24.812;2022-12-26T09:00:00;97494.88;;;23.00;32.26
5954;BME280;3002;42.642;24.812;2022-12-26T09:02:26;97478.06;;;23.38;31.58
5954;BME280;3002;42.642;24.812;2022-12-26T09:04:52;97497.72;;;23.15;31.79
5954;BME280;3002;42.642;24.812;2022-12-26T09:07:18;97485.91;;;22.29;33.14
5954;BME280;3002;42.642;24.812;2022-12-26T09:09:43;97484.56;;;21.81;33.55
5954;BME280;3002;42.642;24.812;2022-12-26T09:12:09;97479.25;;;19.99;34.49
5954;BME280;3002;42.642;24.812;2022-12-26T09:14:35;97458.47;;;22.05;32.12
5954;BME280;3002;42.642;24.812;2022-12-26T09:17:00;97489.63;;;22.25;31.96
5954;BME280;3002;42.642;24.812;2022-12-26T09:19:26;97444.47;;;23.13;30.74
5954;BME280;3002;42.642;24.812;2022-12-26T09:21:54;97477.06;;;23.30;30.58
5954;BME280;3002;42.642;24.812;2022-12-26T09:24:40;97476.28;;;23.98;30.26
5954;BME280;3002;42.642;24.812;2022-12-26T09:27:07;97473.66;;;23.61;29.87
5954;BME280;3002;42.642;24.812;2022-12-26T09:29:33;97465.78;;;22.83;31.09
5954;BME280;3002;42.642;24.812;2022-12-26T09:31:58;97476.88;;;23.11;31.84
5954;BME280;3002;42.642;24.812;2022-12-26T09:34:24;97444.63;;;21.77;31.97
5954;BME280;3002;42.642;24.812;2022-12-26T09:36:51;97471.97;;;22.92;32.20
5954;BME280;3002;42.642;24.812;2022-12-26T09:39:17;97456.16;;;22.15;33.28
5954;BME280;3002;42.642;24.812;2022-12-26T09:41:53;97461.03;;;23.44;31.83
5954;BME280;3002;42.642;24.812;2022-12-26T09:47:33;97466.38;;;23.13;31.55
5954;BME280;3002;42.642;24.812;2022-12-26T09:54:58;97440.22;;;19.60;37.19
5954;BME280;3002;42.642;24.812;2022-12-26T09:57:45;97432.38;;;23.14;32.83
5954;BME280;3002;42.642;24.812;2022-12-26T10:00:24;97435.69;;;23.60;32.34
5954;BME280;3002;42.642;24.812;2022-12-26T10:02:52;97443.88;;;23.72;31.75
5954;BME280;3002;42.642;24.812;2022-12-26T10:05:25;97435.16;;;20.61;36.40
5954;BME280;3002;42.642;24.812;2022-12-26T10:07:58;97437.91;;;23.82;31.93
5954;BME280;3002;42.642;24.812;2022-12-26T10:10:39;97427.38;;;24.75;30.51
5954;BME280;3002;42.642;24.812;2022-12-26T10:13:14;97424.41;;;24.49;31.04
5954;BME280;3002;42.642;24.812;2022-12-26T10:15:58;97421.88;;;23.56;32.00
5954;BME280;3002;42.642;24.812;2022-12-26T10:23:55;97426.00;;;22.36;34.09
5954;BME280;3002;42.642;24.812;2022-12-26T10:26:31;97393.38;;;23.85;31.67
5954;BME280;3002;42.642;24.812;2022-12-26T10:31:57;97404.69;;;25.29;29.96
5954;BME280;3002;42.642;24.812;2022-12-26T10:34:39;97403.00;;;25.05;30.39
5954;BME280;3002;42.642;24.812;2022-12-26T10:42:39;97393.13;;;25.98;28.89
5954;BME280;3002;42.642;24.812;2022-12-26T10:45:15;97361.78;;;25.41;28.89
5954;BME280;3002;42.642;24.812;2022-12-26T10:47:44;97391.41;;;25.31;29.86
5954;BME280;3002;42.642;24.812;2022-12-26T10:50:26;97378.13;;;25.95;29.31
5954;BME280;3002;42.642;24.812;2022-12-26T10:52:53;97361.50;;;24.40;29.68
5954;BME280;3002;42.642;24.812;2022-12-26T10:55:22;97381.03;;;25.05;29.83
5954;BME280;3002;42.642;24.812;2022-12-26T10:57:52;97363.34;;;25.42;28.97
5954;BME280;3002;42.642;24.812;2022-12-26T11:00:23;97377.25;;;22.75;32.04
5954;BME280;3002;42.642;24.812;2022-12-26T11:03:02;97373.97;;;24.38;30.30
5954;BME280;3002;42.642;24.812;2022-12-26T11:05:28;97369.59;;;23.45;31.77
5954;BME280;3002;42.642;24.812;2022-12-26T11:07:56;97363.22;;;25.34;29.96
5954;BME280;3002;42.642;24.812;2022-12-26T11:10:29;97363.78;;;25.82;28.74
5954;BME280;3002;42.642;24.812;2022-12-26T11:13:01;97354.97;;;24.80;30.13
5954;BME280;3002;42.642;24.812;2022-12-26T11:15:39;97366.00;;;24.33;31.06
5954;BME280;3002;42.642;24.812;2022-12-26T11:18:37;97370.97;;;24.43;30.88
5954;BME280;3002;42.642;24.812;2022-12-26T11:21:27;97361.78;;;22.91;32.90
5954;BME280;3002;42.642;24.812;2022-12-26T11:24:17;97364.34;;;25.72;29.57
5954;BME280;3002;42.642;24.812;2022-12-26T11:26:47;97361.13;;;24.26;31.37
5954;BME280;3002;42.642;24.812;2022-12-26T11:29:14;97354.63;;;24.81;30.73
5954;BME280;3002;42.642;24.812;2022-12-26T11:31:56;97354.50;;;26.13;29.08
5954;BME280;3002;42.642;24.812;2022-12-26T11:34:44;97349.06;;;26.93;27.83
5954;BME280;3002;42.642;24.812;2022-12-26T11:37:28;97338.63;;;25.80;29.40
5954;BME280;3002;42.642;24.812;2022-12-26T11:39:56;97325.09;;;22.68;32.56
5954;BME280;3002;42.642;24.812;2022-12-26T11:42:24;97323.63;;;24.46;29.62
5954;BME280;3002;42.642;24.812;2022-12-26T11:44:51;97344.72;;;24.77;29.88
5954;BME280;3002;42.642;24.812;2022-12-26T11:47:25;97314.38;;;23.71;31.92
5954;BME280;3002;42.642;24.812;2022-12-26T11:52:34;97334.31;;;25.21;29.31
5954;BME280;3002;42.642;24.812;2022-12-26T11:55:02;97305.81;;;24.91;29.87
5954;BME280;3002;42.642;24.812;2022-12-26T12:00:36;97325.84;;;21.71;35.08
5954;BME280;3002;42.642;24.812;2022-12-26T12:11:26;97301.75;;;23.11;33.36
5954;BME280;3002;42.642;24.812;2022-12-26T12:16:49;97312.44;;;24.70;31.07
5954;BME280;3002;42.642;24.812;2022-12-26T12:19:41;97329.84;;;21.40;35.34
5954;BME280;3002;42.642;24.812;2022-12-26T12:22:44;97338.25;;;21.14;35.79
5954;BME280;3002;42.642;24.812;2022-12-26T12:25:23;97338.22;;;24.02;32.29
5954;BME280;3002;42.642;24.812;2022-12-26T12:28:16;97337.50;;;23.74;31.67
5954;BME280;3002;42.642;24.812;2022-12-26T12:33:57;97332.31;;;24.83;30.61
5954;BME280;3002;42.642;24.812;2022-12-26T12:36:37;97330.19;;;24.10;31.81
5954;BME280;3002;42.642;24.812;2022-12-26T12:39:15;97322.00;;;21.38;34.81
5954;BME280;3002;42.642;24.812;2022-12-26T12:44:24;97324.22;;;24.36;31.46
5954;BME280;3002;42.642;24.812;2022-12-26T12:50:06;97315.97;;;25.06;30.99
5954;BME280;3002;42.642;24.812;2022-12-26T12:53:06;97329.91;;;22.34;35.16
5954;BME280;3002;42.642;24.812;2022-12-26T13:01:12;97317.34;;;24.61;31.80
5954;BME280;3002;42.642;24.812;2022-12-26T13:06:25;97312.22;;;24.28;31.30
5954;BME280;3002;42.642;24.812;2022-12-26T13:08:55;97318.78;;;25.09;30.83
5954;BME280;3002;42.642;24.812;2022-12-26T13:11:39;97325.44;;;25.28;30.46
5954;BME280;3002;42.642;24.812;2022-12-26T13:16:54;97327.19;;;25.59;29.75
5954;BME280;3002;42.642;24.812;2022-12-26T13:19:43;97330.41;;;24.68;31.03
5954;BME280;3002;42.642;24.812;2022-12-26T13:22:22;97322.25;;;23.61;32.00
5954;BME280;3002;42.642;24.812;2022-12-26T13:24:55;97285.38;;;22.46;33.81
5954;BME280;3002;42.642;24.812;2022-12-26T13:27:35;97327.59;;;22.61;33.77
5954;BME280;3002;42.642;24.812;2022-12-26T13:30:11;97331.66;;;21.36;35.03
5954;BME280;3002;42.642;24.812;2022-12-26T13:32:36;97309.59;;;20.45;36.52
5954;BME280;3002;42.642;24.812;2022-12-26T13:35:02;97341.69;;;21.44;36.10
5954;BME280;3002;42.642;24.812;2022-12-26T13:39:58;97339.88;;;21.94;35.17
5954;BME280;3002;42.642;24.812;2022-12-26T13:42:39;97340.09;;;23.27;33.08
5954;BME280;3002;42.642;24.812;2022-12-26T13:50:56;97320.66;;;21.45;35.18
5954;BME280;3002;42.642;24.812;2022-12-26T14:04:17;97343.66;;;22.75;34.13
5954;BME280;3002;42.642;24.812;2022-12-26T14:11:08;97341.56;;;21.74;35.38
5954;BME280;3002;42.642;24.812;2022-12-26T14:13:45;97326.84;;;20.49;38.48
5954;BME280;3002;42.642;24.812;2022-12-26T14:21:54;97316.69;;;18.57;41.15
5954;BME280;3002;42.642;24.812;2022-12-26T14:44:54;97339.78;;;15.72;49.19
5954;BME280;3002;42.642;24.812;2022-12-26T14:47:43;97351.91;;;15.88;49.21
5954;BME280;3002;42.642;24.812;2022-12-26T15:12:43;97367.06;;;14.25;55.06
5954;BME280;3002;42.642;24.812;2022-12-26T15:15:44;97359.97;;;14.10;55.54
5954;BME280;3002;42.642;24.812;2022-12-26T15:18:43;97360.91;;;13.42;57.55
5954;BME280;3002;42.642;24.812;2022-12-26T15:30:12;97345.91;;;12.47;60.74
5954;BME280;3002;42.642;24.812;2022-12-26T15:35:26;97363.16;;;12.46;61.25
5954;BME280;3002;42.642;24.812;2022-12-26T16:07:52;97354.06;;;12.37;61.30
5954;BME280;3002;42.642;24.812;2022-12-26T16:39:07;97398.34;;;11.55;67.26
5954;BME280;3002;42.642;24.812;2022-12-26T16:41:37;97402.34;;;11.62;66.98
5954;BME280;3002;42.642;24.812;2022-12-26T16:44:37;97396.97;;;11.67;66.76
5954;BME280;3002;42.642;24.812;2022-12-26T16:47:06;97390.56;;;11.58;67.02
5954;BME280;3002;42.642;24.812;2022-12-26T16:49:32;97373.38;;;11.34;67.48
5954;BME280;3002;42.642;24.812;2022-12-26T16:51:59;97369.59;;;11.55;66.90
5954;BME280;3002;42.642;24.812;2022-12-26T16:54:28;97387.84;;;11.63;66.79
5954;BME280;3002;42.642;24.812;2022-12-26T16:57:13;97393.50;;;11.57;67.38
5954;BME280;3002;42.642;24.812;2022-12-26T17:02:20;97395.13;;;11.32;69.39
5954;BME280;3002;42.642;24.812;2022-12-26T17:04:50;97385.19;;;11.22;69.36
5954;BME280;3002;42.642;24.812;2022-12-26T17:07:16;97378.19;;;11.26;69.19
5954;BME280;3002;42.642;24.812;2022-12-26T17:09:49;97386.25;;;11.37;69.05
5954;BME280;3002;42.642;24.812;2022-12-26T17:12:23;97364.50;;;10.87;71.13
5954;BME280;3002;42.642;24.812;2022-12-26T17:14:50;97331.22;;;10.88;70.12
5954;BME280;3002;42.642;24.812;2022-12-26T17:19:49;97391.63;;;11.06;71.20
5954;BME280;3002;42.642;24.812;2022-12-26T17:27:45;97358.03;;;10.68;72.42
5954;BME280;3002;42.642;24.812;2022-12-26T17:30:26;97374.69;;;10.75;72.62
5954;BME280;3002;42.642;24.812;2022-12-26T17:32:51;97362.53;;;10.47;73.10
5954;BME280;3002;42.642;24.812;2022-12-26T17:35:19;97349.75;;;10.80;71.38
5954;BME280;3002;42.642;24.812;2022-12-26T17:37:51;97384.66;;;11.10;69.99
5954;BME280;3002;42.642;24.812;2022-12-26T17:40:22;97364.50;;;10.92;70.53
5954;BME280;3002;42.642;24.812;2022-12-26T17:43:03;97361.28;;;10.90;70.08
5954;BME280;3002;42.642;24.812;2022-12-26T17:45:29;97365.56;;;10.81;70.41
5954;BME280;3002;42.642;24.812;2022-12-26T17:47:57;97370.13;;;10.81;70.68
5954;BME280;3002;42.642;24.812;2022-12-26T17:50:29;97382.16;;;10.73;70.62